North American — WBL7959 — position and weather

sailwx.info

Track history (hours):
 
Tides and Currents Weather Stations Pressure Air Temp Water Temp Dewpoint Dewpoint Depression Visibility Wind Speed Wind Dir Waves Ship Positions

North American

Owner: NORTH AMERICAN INC, SEATTLE, WA. More information available from US FCC via Universal Licensing System and Coast Guard Vessel Documentation Center.

Last reported at 2015-Jun-16 01:33 UTC. Time now 2015-Jul-04 18:58 UTC.
Position N 55°21' W 131°40'.
Warning: this ship's position is 18 days out of date.

Length 38 m; draft 2.5 m.

Type: Fishing. MMSI: 367307370.

Date/timePositionNaut miles runAvg speedWind from/ knotsBaromVisibWave heightAir tempDewpointWater temp
2015-Jun-16 01:33N 55°21' W 131°40'10 9.9
2015-Jun-16 00:33N 55°14' W 131°26'1310.5
2015-Jun-15 23:21N 55°06' W 131°09'12 9.9
2015-Jun-15 22:09N 54°55' W 131°03'231 8.6
2015-Jun-14 19:20N 51°34' W 127°52'8 9.9
2015-Jun-14 18:30N 51°26' W 127°51'64 9.1
2015-Jun-14 11:28N 50°37' W 126°45'1010.7
2015-Jun-14 10:30N 50°31' W 126°32'92 9.2
2015-Jun-14 00:29N 49°35' W 124°37'11 9.7
2015-Jun-13 23:20N 49°28' W 124°25'12 9.9
2015-Jun-13 22:08N 49°20' W 124°11'8 9.5
2015-Jun-13 21:20N 49°17' W 123°60'7 8.9
2015-Jun-13 20:31N 49°14' W 123°49'9 9.0
2015-Jun-13 19:33N 49°10' W 123°38'10 9.9
2015-Jun-13 18:33N 49°02' W 123°29'10 9.7
2015-Jun-13 17:33N 48°55' W 123°19'9 8.8
2015-Jun-13 16:33N 48°46' W 123°19'1010.0
2015-Jun-13 15:33N 48°37' W 123°13'6 6.0
2015-Jun-13 14:33N 48°31' W 123°10'6 6.3
2015-Jun-13 13:35N 48°26' W 123°04'0 7.8
2015-Jun-13 13:33N 48°26' W 123°04'10 9.5
2015-Jun-13 12:30N 48°18' W 122°55'2411.4
2015-Jun-13 10:23N 47°58' W 122°34'7 9.9
2015-Jun-13 09:40N 47°53' W 122°27'110.6
2015-Jun-13 09:33N 47°52' W 122°27'1 9.7
2015-Jun-13 09:30N 47°51' W 122°27'9 9.8
2015-Jun-13 08:33N 47°42' W 122°25'1 9.6
2015-Jun-13 08:30N 47°42' W 122°25'3 0.4
2015-Jun-13 00:11N 47°39' W 122°22'0 0.0
2015-Jun-13 00:08N 47°39' W 122°22'0 0.0
2015-Jun-12 23:33N 47°39' W 122°22'0 0.0
2015-Jun-12 23:33N 47°39' W 122°22'0 0.0
2015-Jun-12 22:33N 47°39' W 122°22'0 0.0
2015-Jun-12 22:33N 47°39' W 122°22'0 0.0
2015-Jun-12 21:33N 47°39' W 122°22'0 0.0
2015-Jun-12 21:33N 47°39' W 122°22'0 0.0
2015-Jun-12 20:32N 47°39' W 122°22'0 0.0
2015-Jun-12 20:32N 47°39' W 122°22'0 0.0
2015-Jun-12 19:33N 47°39' W 122°22'0 0.0
2015-Jun-12 19:32N 47°39' W 122°22'0 0.0
2015-Jun-12 18:33N 47°39' W 122°22'0 0.0
2015-Jun-12 18:32N 47°39' W 122°22'0 0.0
2015-Jun-12 17:33N 47°39' W 122°22'0 0.0
2015-Jun-12 17:32N 47°39' W 122°22'0 0.0
2015-Jun-12 16:33N 47°39' W 122°22'0 0.0
2015-Jun-12 16:32N 47°39' W 122°22'0 0.0
2015-Jun-12 15:33N 47°39' W 122°22'0 0.0
2015-Jun-12 15:32N 47°39' W 122°22'0 0.0
2015-Jun-12 14:33N 47°39' W 122°22'0 0.0
2015-Jun-12 14:31N 47°39' W 122°22'0 0.0
2015-Jun-12 13:33N 47°39' W 122°22'0 0.0
2015-Jun-12 13:31N 47°39' W 122°22'0 0.0
2015-Jun-12 12:33N 47°39' W 122°22'0 0.0
2015-Jun-12 12:31N 47°39' W 122°22'0 0.0
2015-Jun-12 11:33N 47°39' W 122°22'0 0.0
2015-Jun-12 11:30N 47°39' W 122°22'0 0.0
2015-Jun-12 10:33N 47°39' W 122°22'0 0.0
2015-Jun-12 10:30N 47°39' W 122°22'0 0.0
2015-Jun-12 09:33N 47°39' W 122°22'0 0.0
2015-Jun-12 09:30N 47°39' W 122°22'0 0.0
2015-Jun-12 08:33N 47°39' W 122°22'0 0.0
2015-Jun-12 08:30N 47°39' W 122°22'0 0.0
2015-Jun-12 07:33N 47°39' W 122°22'0 0.0
2015-Jun-12 07:30N 47°39' W 122°22'0 0.0
2015-Jun-12 06:33N 47°39' W 122°22'0 0.0
2015-Jun-12 06:29N 47°39' W 122°22'0 0.0
2015-Jun-12 06:09N 47°39' W 122°22'0 0.0
2015-Jun-12 05:33N 47°39' W 122°22'0 0.0
2015-Jun-12 04:33N 47°39' W 122°22'0 0.0
2015-Jun-12 04:29N 47°39' W 122°22'0 0.0
2015-Jun-12 03:33N 47°39' W 122°22'0 0.0
2015-Jun-12 03:29N 47°39' W 122°22'0 0.0
2015-Jun-12 02:34N 47°39' W 122°22'0 0.0
2015-Jun-12 02:33N 47°39' W 122°22'0 0.0
2015-Jun-12 01:33N 47°39' W 122°22'0 1.3
2015-Jun-12 01:33N 47°39' W 122°22'  
Track history (hours):
 
Tides and Currents Weather Stations Pressure Air Temp Water Temp Dewpoint Dewpoint Depression Visibility Wind Speed Wind Dir Waves Ship Positions

North American

Owner: NORTH AMERICAN INC, SEATTLE, WA. More information available from US FCC via Universal Licensing System and Coast Guard Vessel Documentation Center.

Last reported at 2015-Jun-16 01:33 UTC. Time now 2015-Jul-04 18:58 UTC.
Position N 55°21' W 131°40'.
Warning: this ship's position is 18 days out of date.

Length 38 m; draft 2.5 m.

Type: Fishing. MMSI: 367307370.

Date/timePositionNaut miles runAvg speedWind from/ knotsBaromVisibWave heightAir tempDewpointWater temp
2015-Jun-16 01:33N 55°21' W 131°40'10 9.9
2015-Jun-16 00:33N 55°14' W 131°26'1310.5
2015-Jun-15 23:21N 55°06' W 131°09'12 9.9
2015-Jun-15 22:09N 54°55' W 131°03'231 8.6
2015-Jun-14 19:20N 51°34' W 127°52'8 9.9
2015-Jun-14 18:30N 51°26' W 127°51'64 9.1
2015-Jun-14 11:28N 50°37' W 126°45'1010.7
2015-Jun-14 10:30N 50°31' W 126°32'92 9.2
2015-Jun-14 00:29N 49°35' W 124°37'11 9.7
2015-Jun-13 23:20N 49°28' W 124°25'12 9.9
2015-Jun-13 22:08N 49°20' W 124°11'8 9.5
2015-Jun-13 21:20N 49°17' W 123°60'7 8.9
2015-Jun-13 20:31N 49°14' W 123°49'9 9.0
2015-Jun-13 19:33N 49°10' W 123°38'10 9.9
2015-Jun-13 18:33N 49°02' W 123°29'10 9.7
2015-Jun-13 17:33N 48°55' W 123°19'9 8.8
2015-Jun-13 16:33N 48°46' W 123°19'1010.0
2015-Jun-13 15:33N 48°37' W 123°13'6 6.0
2015-Jun-13 14:33N 48°31' W 123°10'6 6.3
2015-Jun-13 13:35N 48°26' W 123°04'0 7.8
2015-Jun-13 13:33N 48°26' W 123°04'10 9.5
2015-Jun-13 12:30N 48°18' W 122°55'2411.4
2015-Jun-13 10:23N 47°58' W 122°34'7 9.9
2015-Jun-13 09:40N 47°53' W 122°27'110.6
2015-Jun-13 09:33N 47°52' W 122°27'1 9.7
2015-Jun-13 09:30N 47°51' W 122°27'9 9.8
2015-Jun-13 08:33N 47°42' W 122°25'1 9.6
2015-Jun-13 08:30N 47°42' W 122°25'3 0.4
2015-Jun-13 00:11N 47°39' W 122°22'0 0.0
2015-Jun-13 00:08N 47°39' W 122°22'0 0.0
2015-Jun-12 23:33N 47°39' W 122°22'0 0.0
2015-Jun-12 23:33N 47°39' W 122°22'0 0.0
2015-Jun-12 22:33N 47°39' W 122°22'0 0.0
2015-Jun-12 22:33N 47°39' W 122°22'0 0.0
2015-Jun-12 21:33N 47°39' W 122°22'0 0.0
2015-Jun-12 21:33N 47°39' W 122°22'0 0.0
2015-Jun-12 20:32N 47°39' W 122°22'0 0.0
2015-Jun-12 20:32N 47°39' W 122°22'0 0.0
2015-Jun-12 19:33N 47°39' W 122°22'0 0.0
2015-Jun-12 19:32N 47°39' W 122°22'0 0.0
2015-Jun-12 18:33N 47°39' W 122°22'0 0.0
2015-Jun-12 18:32N 47°39' W 122°22'0 0.0
2015-Jun-12 17:33N 47°39' W 122°22'0 0.0
2015-Jun-12 17:32N 47°39' W 122°22'0 0.0
2015-Jun-12 16:33N 47°39' W 122°22'0 0.0
2015-Jun-12 16:32N 47°39' W 122°22'0 0.0
2015-Jun-12 15:33N 47°39' W 122°22'0 0.0
2015-Jun-12 15:32N 47°39' W 122°22'0 0.0
2015-Jun-12 14:33N 47°39' W 122°22'0 0.0
2015-Jun-12 14:31N 47°39' W 122°22'0 0.0
2015-Jun-12 13:33N 47°39' W 122°22'0 0.0
2015-Jun-12 13:31N 47°39' W 122°22'0 0.0
2015-Jun-12 12:33N 47°39' W 122°22'0 0.0
2015-Jun-12 12:31N 47°39' W 122°22'0 0.0
2015-Jun-12 11:33N 47°39' W 122°22'0 0.0
2015-Jun-12 11:30N 47°39' W 122°22'0 0.0
2015-Jun-12 10:33N 47°39' W 122°22'0 0.0
2015-Jun-12 10:30N 47°39' W 122°22'0 0.0
2015-Jun-12 09:33N 47°39' W 122°22'0 0.0
2015-Jun-12 09:30N 47°39' W 122°22'0 0.0
2015-Jun-12 08:33N 47°39' W 122°22'0 0.0
2015-Jun-12 08:30N 47°39' W 122°22'0 0.0
2015-Jun-12 07:33N 47°39' W 122°22'0 0.0
2015-Jun-12 07:30N 47°39' W 122°22'0 0.0
2015-Jun-12 06:33N 47°39' W 122°22'0 0.0
2015-Jun-12 06:29N 47°39' W 122°22'0 0.0
2015-Jun-12 06:09N 47°39' W 122°22'0 0.0
2015-Jun-12 05:33N 47°39' W 122°22'0 0.0
2015-Jun-12 04:33N 47°39' W 122°22'0 0.0
2015-Jun-12 04:29N 47°39' W 122°22'0 0.0
2015-Jun-12 03:33N 47°39' W 122°22'0 0.0
2015-Jun-12 03:29N 47°39' W 122°22'0 0.0
2015-Jun-12 02:34N 47°39' W 122°22'0 0.0
2015-Jun-12 02:33N 47°39' W 122°22'0 0.0
2015-Jun-12 01:33N 47°39' W 122°22'0 1.3
2015-Jun-12 01:33N 47°39' W 122°22'  

Dump ship's entire track history